createdAt,value
2023-05-06T00:01:10.597Z,15.00
2023-05-06T00:03:37.593Z,14.17
2023-05-06T00:06:07.116Z,15.50
2023-05-06T00:08:33.770Z,14.47
2023-05-06T00:11:00.644Z,15.70
2023-05-06T00:13:27.399Z,18.23
2023-05-06T00:15:54.164Z,15.47
2023-05-06T00:18:22.792Z,16.03
2023-05-06T00:20:50.245Z,15.87
2023-05-06T00:23:16.964Z,16.13
2023-05-06T00:25:43.649Z,14.47
2023-05-06T00:28:10.372Z,18.10
2023-05-06T00:30:37.132Z,16.60
2023-05-06T00:33:03.942Z,18.63
2023-05-06T00:35:31.138Z,16.60
2023-05-06T00:38:06.290Z,19.67
2023-05-06T00:40:32.971Z,16.50
2023-05-06T00:42:59.734Z,14.90
2023-05-06T00:45:26.811Z,14.93
2023-05-06T00:47:53.837Z,17.13
2023-05-06T00:50:21.345Z,16.87
2023-05-06T00:52:48.723Z,17.27
2023-05-06T00:55:16.274Z,16.33
2023-05-06T00:57:43.300Z,18.20
2023-05-06T01:00:11.939Z,17.13
2023-05-06T01:02:47.163Z,14.53
2023-05-06T01:05:21.116Z,16.77
2023-05-06T01:08:21.360Z,16.50
2023-05-06T01:10:57.611Z,17.37
2023-05-06T01:13:52.244Z,16.40
2023-05-06T01:16:22.933Z,18.83
2023-05-06T01:18:51.905Z,21.17
2023-05-06T01:21:19.346Z,18.70
2023-05-06T01:23:58.214Z,23.20
2023-05-06T01:26:25.687Z,20.23
2023-05-06T01:28:52.954Z,24.03
2023-05-06T01:31:32.102Z,25.10
2023-05-06T01:34:07.933Z,23.27
2023-05-06T01:37:10.629Z,25.30
2023-05-06T01:39:39.944Z,22.93
2023-05-06T01:42:09.285Z,24.00
2023-05-06T01:44:38.457Z,23.20
2023-05-06T01:47:07.412Z,20.17
2023-05-06T01:49:34.603Z,21.13
2023-05-06T01:52:02.324Z,21.37
2023-05-06T01:54:29.044Z,20.57
2023-05-06T01:56:56.846Z,23.20
2023-05-06T01:59:23.660Z,21.50
2023-05-06T02:01:50.357Z,21.57
2023-05-06T02:04:17.154Z,21.83
2023-05-06T02:06:44.168Z,23.13
2023-05-06T02:09:10.890Z,26.07
2023-05-06T02:11:37.669Z,21.00
2023-05-06T02:14:04.417Z,22.37
2023-05-06T02:16:31.295Z,22.90
2023-05-06T02:18:58.088Z,24.57
2023-05-06T02:21:24.957Z,28.90
2023-05-06T02:23:51.669Z,28.23
2023-05-06T02:26:18.443Z,26.80
2023-05-06T02:28:45.226Z,25.20
2023-05-06T02:31:16.708Z,28.00
2023-05-06T02:33:45.940Z,36.53
2023-05-06T02:36:12.626Z,31.70
2023-05-06T02:38:39.405Z,28.97
2023-05-06T02:41:07.177Z,29.67
2023-05-06T02:43:33.895Z,28.37
2023-05-06T02:46:00.717Z,37.67
2023-05-06T02:48:27.562Z,32.10
2023-05-06T02:50:54.262Z,30.07
2023-05-06T02:53:20.991Z,32.90
2023-05-06T02:55:47.746Z,26.70
2023-05-06T02:58:14.500Z,25.73
2023-05-06T03:00:41.283Z,28.97
2023-05-06T03:03:08.121Z,28.67
2023-05-06T03:05:35.186Z,27.30
2023-05-06T03:08:03.129Z,25.13
2023-05-06T03:10:29.912Z,26.67
2023-05-06T03:12:56.634Z,23.23
2023-05-06T03:15:23.386Z,31.67
2023-05-06T03:17:50.348Z,64.10
2023-05-06T03:20:17.183Z,66.73
2023-05-06T03:22:44.127Z,74.77
2023-05-06T03:25:11.195Z,61.20
2023-05-06T03:27:38.229Z,73.50
2023-05-06T03:30:06.461Z,58.13
2023-05-06T03:32:33.297Z,41.80
2023-05-06T03:34:59.998Z,48.73
2023-05-06T03:37:26.877Z,41.37
2023-05-06T03:39:53.710Z,41.77
2023-05-06T03:42:20.613Z,39.37
2023-05-06T03:44:47.551Z,38.60
2023-05-06T03:47:14.237Z,39.60
2023-05-06T03:49:40.962Z,37.03
2023-05-06T03:52:08.062Z,39.97
2023-05-06T03:54:34.849Z,42.13
2023-05-06T03:57:02.494Z,41.63
2023-05-06T03:59:29.152Z,42.90
2023-05-06T04:01:56.336Z,41.63
2023-05-06T04:04:23.149Z,44.23
2023-05-06T04:06:49.982Z,46.00
2023-05-06T04:09:16.876Z,56.23
2023-05-06T04:11:43.632Z,61.57
2023-05-06T04:14:10.274Z,35.93
2023-05-06T04:16:37.064Z,48.97
2023-05-06T04:19:06.235Z,46.27
2023-05-06T04:21:33.469Z,45.43
2023-05-06T04:24:00.324Z,52.77
2023-05-06T04:26:27.052Z,50.37
2023-05-06T04:28:53.759Z,49.17
2023-05-06T04:31:20.544Z,54.23
2023-05-06T04:33:47.415Z,65.07
2023-05-06T04:36:14.361Z,70.37
2023-05-06T04:38:41.773Z,83.27
2023-05-06T04:41:08.482Z,99.20
2023-05-06T04:43:35.164Z,125.97
2023-05-06T04:46:02.333Z,80.37
2023-05-06T04:48:29.552Z,78.00
2023-05-06T04:50:57.472Z,71.70
2023-05-06T04:53:24.277Z,82.20
2023-05-06T04:55:51.142Z,54.50
2023-05-06T04:58:19.010Z,59.90
2023-05-06T05:00:45.807Z,62.57
2023-05-06T05:03:12.992Z,52.57
2023-05-06T05:05:40.075Z,45.37
2023-05-06T05:08:08.812Z,64.63
2023-05-06T05:10:35.626Z,51.40
2023-05-06T05:13:02.473Z,66.30
2023-05-06T05:15:29.461Z,39.13
2023-05-06T05:17:56.283Z,39.47
2023-05-06T05:20:23.189Z,45.73
2023-05-06T05:22:49.890Z,40.37
2023-05-06T05:25:16.590Z,36.07
2023-05-06T05:27:43.504Z,57.53
2023-05-06T05:30:10.765Z,38.70
2023-05-06T05:32:37.665Z,36.13
2023-05-06T05:35:04.893Z,34.60
2023-05-06T05:37:31.834Z,37.33
2023-05-06T05:39:58.705Z,43.77
2023-05-06T05:42:25.417Z,32.50
2023-05-06T05:44:52.117Z,36.63
2023-05-06T05:47:19.036Z,30.53
2023-05-06T05:49:45.729Z,30.20
2023-05-06T05:52:12.488Z,27.43
2023-05-06T05:54:39.182Z,34.97
2023-05-06T05:57:06.216Z,56.27
2023-05-06T05:59:32.988Z,29.00
2023-05-06T06:01:59.800Z,31.60
2023-05-06T06:04:27.088Z,34.20
2023-05-06T06:06:53.882Z,30.70
2023-05-06T06:09:20.951Z,30.47
2023-05-06T06:11:47.876Z,28.27
2023-05-06T06:14:14.779Z,38.00
2023-05-06T06:16:41.653Z,28.93
2023-05-06T06:19:08.647Z,26.23
2023-05-06T06:21:35.920Z,29.77
2023-05-06T06:24:02.669Z,24.17
2023-05-06T06:26:29.349Z,24.47
2023-05-06T06:28:56.054Z,25.87
2023-05-06T06:31:22.799Z,28.73
2023-05-06T06:33:49.888Z,29.60
2023-05-06T06:36:16.804Z,22.53
2023-05-06T06:38:43.468Z,20.83
2023-05-06T06:41:10.136Z,21.52
2023-05-06T06:43:36.955Z,20.55
2023-05-06T06:46:03.730Z,23.60
2023-05-06T06:48:30.522Z,21.10
2023-05-06T06:50:57.497Z,21.58
2023-05-06T06:53:24.419Z,21.63
2023-05-06T06:55:51.170Z,20.42
2023-05-06T06:58:18.210Z,20.50
2023-05-06T07:00:44.914Z,21.13
2023-05-06T07:03:11.792Z,21.35
2023-05-06T07:05:38.900Z,21.63
2023-05-06T07:08:05.656Z,21.40
2023-05-06T07:10:32.572Z,22.08
2023-05-06T07:12:59.460Z,21.27
2023-05-06T07:15:26.319Z,25.45
2023-05-06T07:17:53.196Z,26.02
2023-05-06T07:20:20.519Z,23.42
2023-05-06T07:22:47.590Z,23.63
2023-05-06T07:25:14.536Z,23.52
2023-05-06T07:27:41.531Z,24.40
2023-05-06T07:30:08.704Z,23.42
2023-05-06T07:32:35.579Z,22.15
2023-05-06T07:35:03.361Z,23.75
2023-05-06T07:37:30.217Z,26.55
2023-05-06T07:39:57.922Z,22.20
2023-05-06T07:42:25.203Z,24.80
2023-05-06T07:44:52.037Z,23.98
2023-05-06T07:47:31.680Z,19.55
2023-05-06T07:49:59.878Z,21.58
2023-05-06T07:52:27.294Z,23.52
2023-05-06T07:54:54.658Z,20.10
2023-05-06T07:57:21.917Z,20.38
2023-05-06T07:59:50.863Z,24.48
2023-05-06T08:02:18.016Z,22.05
2023-05-06T08:04:45.990Z,23.13
2023-05-06T08:07:12.744Z,23.73
2023-05-06T08:09:39.442Z,23.38
2023-05-06T08:12:06.449Z,21.67
2023-05-06T08:14:33.157Z,22.08
2023-05-06T08:16:59.942Z,24.13
2023-05-06T08:19:27.288Z,23.40
2023-05-06T08:21:54.189Z,26.25
2023-05-06T08:24:21.334Z,25.90
2023-05-06T08:26:48.025Z,23.23
2023-05-06T08:29:14.698Z,21.58
2023-05-06T08:31:41.848Z,23.27
2023-05-06T08:34:08.705Z,25.02
2023-05-06T08:36:35.556Z,26.45
2023-05-06T08:39:02.303Z,23.58
2023-05-06T08:41:30.398Z,24.10
2023-05-06T08:43:58.351Z,23.02
2023-05-06T08:46:27.400Z,23.02
2023-05-06T08:48:54.815Z,27.30
2023-05-06T08:51:28.463Z,24.63
2023-05-06T08:53:55.967Z,22.77
2023-05-06T08:56:27.469Z,26.98
2023-05-06T08:58:55.702Z,23.90
2023-05-06T09:01:22.462Z,24.73
2023-05-06T09:03:50.113Z,25.05
2023-05-06T09:06:16.907Z,23.73
2023-05-06T09:08:44.024Z,22.10
2023-05-06T09:11:26.483Z,22.63
2023-05-06T09:14:09.718Z,23.52
2023-05-06T09:16:37.075Z,24.67
2023-05-06T09:19:04.007Z,24.08
2023-05-06T09:21:42.901Z,25.17
2023-05-06T09:24:10.763Z,24.55
2023-05-06T09:26:39.208Z,21.95
2023-05-06T09:29:06.648Z,22.45
2023-05-06T09:31:39.647Z,21.83
2023-05-06T09:34:06.940Z,22.85
2023-05-06T09:36:34.012Z,23.33
2023-05-06T09:39:00.886Z,20.90
2023-05-06T09:41:27.752Z,18.92
2023-05-06T09:43:55.579Z,20.52
2023-05-06T09:46:23.809Z,20.13
2023-05-06T09:48:52.756Z,19.25
2023-05-06T09:51:20.907Z,20.50
2023-05-06T09:53:48.735Z,18.77
2023-05-06T09:56:16.498Z,17.45
2023-05-06T09:58:43.589Z,17.30
2023-05-06T10:01:15.170Z,17.75
2023-05-06T10:03:47.056Z,17.98
2023-05-06T10:06:14.094Z,14.55
2023-05-06T10:08:41.822Z,13.93
2023-05-06T10:11:09.939Z,14.15
2023-05-06T10:13:38.849Z,14.02
2023-05-06T10:16:07.836Z,15.55
2023-05-06T10:18:37.032Z,14.32
2023-05-06T10:21:09.955Z,14.35
2023-05-06T10:23:52.119Z,12.93
2023-05-06T10:26:21.351Z,13.73
2023-05-06T10:28:53.081Z,14.27
2023-05-06T10:31:19.948Z,13.52
2023-05-06T10:33:50.162Z,13.00
2023-05-06T10:36:27.918Z,14.55
2023-05-06T10:39:00.679Z,13.77
2023-05-06T10:41:28.954Z,10.65
2023-05-06T10:43:57.030Z,10.10
2023-05-06T10:46:26.378Z,12.20
2023-05-06T10:49:11.646Z,14.48
2023-05-06T10:51:39.250Z,10.40
2023-05-06T10:54:09.561Z,9.20
2023-05-06T10:56:38.348Z,11.23
2023-05-06T10:59:10.502Z,11.45
2023-05-06T11:01:39.520Z,14.02
2023-05-06T11:04:15.639Z,10.95
2023-05-06T11:06:49.564Z,9.43
2023-05-06T11:09:29.917Z,10.77
2023-05-06T11:12:05.545Z,9.25
2023-05-06T11:14:36.265Z,12.55
2023-05-06T11:17:05.423Z,11.18
2023-05-06T11:19:37.469Z,10.70
2023-05-06T11:22:06.039Z,12.30
2023-05-06T11:24:43.205Z,10.70
2023-05-06T11:27:11.231Z,9.50
2023-05-06T11:29:38.309Z,9.57
2023-05-06T11:32:25.001Z,11.40
2023-05-06T11:34:55.760Z,9.63
2023-05-06T11:37:27.205Z,9.23
2023-05-06T11:39:54.093Z,10.20
2023-05-06T11:42:26.052Z,10.35
2023-05-06T11:44:56.485Z,9.73
2023-05-06T11:47:24.220Z,8.80
2023-05-06T11:49:53.138Z,12.25
2023-05-06T11:52:23.304Z,6.43
2023-05-06T11:54:53.581Z,8.27
2023-05-06T11:57:20.540Z,8.43
2023-05-06T11:59:53.705Z,11.20
2023-05-06T12:02:21.098Z,8.85
2023-05-06T12:04:49.940Z,8.95
2023-05-06T12:07:17.028Z,9.13
2023-05-06T12:09:49.194Z,9.40
2023-05-06T12:12:22.304Z,7.07
2023-05-06T12:14:51.142Z,7.70
2023-05-06T12:17:18.698Z,8.93
2023-05-06T12:19:46.837Z,7.03
2023-05-06T12:22:24.764Z,7.63
2023-05-06T12:24:51.650Z,8.15
2023-05-06T12:27:41.654Z,6.70
2023-05-06T12:30:09.459Z,6.03
2023-05-06T12:32:36.597Z,7.47
2023-05-06T12:35:07.454Z,7.15
2023-05-06T12:37:34.673Z,7.57
2023-05-06T12:40:01.479Z,5.80
2023-05-06T12:42:28.390Z,6.07
2023-05-06T12:44:55.851Z,8.65
2023-05-06T12:47:27.096Z,4.85
2023-05-06T12:49:55.813Z,6.53
2023-05-06T12:52:24.302Z,7.78
2023-05-06T12:54:54.784Z,6.38
2023-05-06T12:57:22.032Z,5.95
2023-05-06T12:59:49.922Z,8.48
2023-05-06T13:02:16.801Z,9.27
2023-05-06T13:04:44.459Z,7.63
2023-05-06T13:07:11.914Z,6.97
2023-05-06T13:09:38.623Z,8.82
2023-05-06T13:12:06.214Z,7.38
2023-05-06T13:14:32.947Z,6.50
2023-05-06T13:17:05.093Z,7.68
2023-05-06T13:19:33.239Z,4.63
2023-05-06T13:22:01.617Z,4.60
2023-05-06T13:24:29.136Z,4.63
2023-05-06T13:26:57.119Z,7.07
2023-05-06T13:29:24.599Z,6.93
2023-05-06T13:31:51.881Z,6.20
2023-05-06T13:34:19.103Z,5.00
2023-05-06T13:36:47.780Z,6.57
2023-05-06T13:39:16.040Z,4.97
2023-05-06T13:41:46.174Z,3.10
2023-05-06T13:44:13.933Z,7.22
2023-05-06T13:46:40.617Z,6.68
2023-05-06T13:49:07.415Z,6.25
2023-05-06T13:51:34.616Z,6.47
2023-05-06T13:54:03.080Z,6.35
2023-05-06T13:56:29.935Z,5.03
2023-05-06T13:58:56.690Z,6.75
2023-05-06T14:01:24.303Z,5.75
2023-05-06T14:03:51.157Z,6.10
2023-05-06T14:06:18.161Z,5.00
2023-05-06T14:08:45.323Z,7.20
2023-05-06T14:11:12.154Z,5.40
2023-05-06T14:13:40.117Z,5.32
2023-05-06T14:16:07.193Z,4.80
2023-05-06T14:18:34.431Z,4.78
2023-05-06T14:21:01.166Z,6.22
2023-05-06T14:23:27.834Z,7.72
2023-05-06T14:25:54.815Z,5.55
2023-05-06T14:28:21.484Z,8.35
2023-05-06T14:30:48.308Z,5.22
2023-05-06T14:33:14.970Z,5.95
2023-05-06T14:35:42.730Z,5.15
2023-05-06T14:38:10.821Z,6.53
2023-05-06T14:40:38.887Z,5.55
2023-05-06T14:43:07.697Z,6.93
2023-05-06T14:45:34.843Z,3.92
2023-05-06T14:48:02.118Z,3.60
2023-05-06T14:50:29.622Z,5.72
2023-05-06T14:52:56.298Z,6.40
2023-05-06T14:55:23.088Z,6.78
2023-05-06T14:57:50.398Z,4.93
2023-05-06T15:00:17.454Z,6.63
2023-05-06T15:02:44.839Z,7.68
2023-05-06T15:05:12.366Z,5.68
2023-05-06T15:07:39.483Z,6.07
2023-05-06T15:10:06.462Z,7.28
2023-05-06T15:12:34.088Z,8.07
2023-05-06T15:15:00.819Z,5.88
2023-05-06T15:17:27.731Z,6.32
2023-05-06T15:19:54.756Z,5.50
2023-05-06T15:22:21.476Z,7.45
2023-05-06T15:24:48.831Z,8.60
2023-05-06T15:27:15.710Z,5.88
2023-05-06T15:29:42.380Z,6.40
2023-05-06T15:32:09.713Z,9.50
2023-05-06T15:34:36.839Z,7.90
2023-05-06T15:37:03.573Z,7.90
2023-05-06T15:39:38.313Z,7.07
2023-05-06T15:42:05.561Z,5.95
2023-05-06T15:44:33.686Z,6.63
2023-05-06T15:47:00.705Z,4.47
2023-05-06T15:51:59.947Z,6.25
2023-05-06T15:54:28.306Z,6.70
2023-05-06T15:56:56.538Z,6.78
2023-05-06T15:59:23.607Z,8.95
2023-05-06T16:02:25.602Z,9.50
2023-05-06T16:04:37.435Z,5.55
2023-05-06T16:07:04.457Z,7.63
2023-05-06T16:09:31.182Z,6.63
2023-05-06T16:11:57.892Z,7.00
2023-05-06T16:14:24.688Z,4.38
2023-05-06T16:16:51.413Z,6.70
2023-05-06T16:19:18.591Z,7.93
2023-05-06T16:21:45.359Z,10.70
2023-05-06T16:24:12.316Z,7.65
2023-05-06T16:26:39.263Z,9.63
2023-05-06T16:29:06.785Z,7.97
2023-05-06T16:31:34.614Z,6.45
2023-05-06T16:34:01.533Z,7.78
2023-05-06T16:36:28.875Z,6.78
2023-05-06T16:38:55.658Z,6.88
2023-05-06T16:41:23.498Z,7.20
2023-05-06T16:43:50.770Z,9.13
2023-05-06T16:46:17.660Z,20.27
2023-05-06T16:48:44.394Z,13.50
2023-05-06T16:51:15.967Z,11.73
2023-05-06T16:53:43.139Z,19.90
2023-05-06T16:56:13.257Z,17.65
2023-05-06T16:58:40.097Z,11.70
2023-05-06T17:01:09.652Z,10.35
2023-05-06T17:03:40.360Z,7.68
2023-05-06T17:06:07.811Z,7.07
2023-05-06T17:08:36.317Z,5.20
2023-05-06T17:11:06.469Z,14.57
2023-05-06T17:13:33.533Z,28.90
2023-05-06T17:16:00.252Z,13.35
2023-05-06T17:18:26.981Z,13.50
2023-05-06T17:20:56.444Z,23.05
2023-05-06T17:23:24.462Z,19.30
2023-05-06T17:25:51.994Z,31.03
2023-05-06T17:28:19.145Z,29.33
2023-05-06T17:30:46.302Z,41.38
2023-05-06T17:33:13.236Z,39.20
2023-05-06T17:35:40.093Z,42.43
2023-05-06T17:38:06.856Z,49.07
2023-05-06T17:40:33.688Z,45.57
2023-05-06T17:43:00.698Z,43.83
2023-05-06T17:45:28.405Z,43.90
2023-05-06T17:47:56.467Z,47.35
2023-05-06T17:50:23.573Z,43.60
2023-05-06T17:52:52.349Z,42.93
2023-05-06T17:55:21.526Z,44.57
2023-05-06T17:57:48.838Z,44.47
2023-05-06T18:00:16.692Z,50.30
2023-05-06T18:02:44.002Z,39.70
2023-05-06T18:05:11.382Z,46.72
2023-05-06T18:07:38.690Z,47.10
2023-05-06T18:10:06.264Z,50.72
2023-05-06T18:12:33.003Z,45.67
2023-05-06T18:17:35.149Z,55.90
2023-05-06T18:20:01.865Z,44.20
2023-05-06T18:22:28.571Z,48.30
2023-05-06T18:24:55.613Z,43.40
2023-05-06T18:27:22.867Z,46.70
2023-05-06T18:29:49.644Z,50.92
2023-05-06T18:32:16.789Z,55.88
2023-05-06T18:34:43.519Z,55.83
2023-05-06T18:37:10.228Z,54.23
2023-05-06T18:39:41.643Z,57.57
2023-05-06T18:42:08.947Z,58.47
2023-05-06T18:44:35.719Z,64.00
2023-05-06T18:47:02.394Z,74.07
2023-05-06T18:49:30.659Z,69.73
2023-05-06T18:51:57.428Z,58.88
2023-05-06T18:54:24.555Z,37.60
2023-05-06T18:56:54.781Z,28.80
2023-05-06T18:59:21.866Z,29.37
2023-05-06T19:01:48.537Z,23.10
2023-05-06T19:04:15.361Z,23.37
2023-05-06T19:06:42.125Z,24.13
2023-05-06T19:09:08.805Z,19.60
2023-05-06T19:11:35.543Z,21.13
2023-05-06T19:14:02.282Z,21.47
2023-05-06T19:16:29.744Z,20.47
2023-05-06T19:18:56.465Z,19.80
2023-05-06T19:21:23.312Z,21.13
2023-05-06T19:23:51.012Z,23.87
2023-05-06T19:26:17.680Z,23.10
2023-05-06T19:28:44.483Z,20.47
2023-05-06T19:31:11.639Z,19.73
2023-05-06T19:33:38.965Z,23.33
2023-05-06T19:36:06.202Z,19.57
2023-05-06T19:38:32.937Z,21.33
2023-05-06T19:40:59.610Z,16.77
2023-05-06T19:43:26.327Z,18.70
2023-05-06T19:45:53.080Z,17.77
2023-05-06T19:48:20.601Z,23.17
2023-05-06T19:50:47.368Z,21.97
2023-05-06T19:53:14.140Z,18.00
2023-05-06T19:55:40.986Z,20.17
2023-05-06T19:58:07.660Z,18.13
2023-05-06T20:00:34.361Z,22.70
2023-05-06T20:03:01.286Z,18.60
2023-05-06T20:05:31.953Z,19.50
2023-05-06T20:08:02.043Z,23.13
2023-05-06T20:10:29.099Z,24.53
2023-05-06T20:12:57.637Z,22.17
2023-05-06T20:15:24.890Z,21.00
2023-05-06T20:17:51.915Z,25.50
2023-05-06T20:20:19.383Z,21.67
2023-05-06T20:22:46.098Z,22.83
2023-05-06T20:25:17.587Z,26.67
2023-05-06T20:27:45.152Z,19.83
2023-05-06T20:30:12.578Z,23.47
2023-05-06T20:32:40.399Z,23.33
2023-05-06T20:35:08.062Z,18.40
2023-05-06T20:37:35.441Z,23.07
2023-05-06T20:40:04.682Z,23.03
2023-05-06T20:42:31.992Z,22.73
2023-05-06T20:44:59.470Z,23.93
2023-05-06T20:47:26.657Z,22.47
2023-05-06T20:49:53.634Z,21.90
2023-05-06T20:52:21.684Z,26.30
2023-05-06T20:54:49.559Z,23.87
2023-05-06T20:57:17.127Z,24.30
2023-05-06T20:59:44.379Z,24.77
2023-05-06T21:02:11.204Z,23.97
2023-05-06T21:04:37.977Z,22.47
2023-05-06T21:07:04.743Z,25.57
2023-05-06T21:09:32.454Z,19.23
2023-05-06T21:11:59.315Z,25.93
2023-05-06T21:14:27.330Z,33.40
2023-05-06T21:16:54.112Z,26.20
2023-05-06T21:19:20.992Z,24.53
2023-05-06T21:21:48.338Z,26.03
2023-05-06T21:24:15.111Z,30.80
2023-05-06T21:26:41.862Z,32.37
2023-05-06T21:29:08.689Z,29.13
2023-05-06T21:31:35.583Z,33.57
2023-05-06T21:34:03.426Z,34.63
2023-05-06T21:36:30.191Z,32.40
2023-05-06T21:39:05.462Z,37.33
2023-05-06T21:41:32.280Z,35.77
2023-05-06T21:43:59.142Z,39.50
2023-05-06T21:46:26.026Z,37.67
2023-05-06T21:48:52.721Z,41.67
2023-05-06T21:51:19.480Z,43.97
2023-05-06T21:53:50.195Z,40.03
2023-05-06T21:56:18.393Z,39.33
2023-05-06T21:58:45.288Z,43.87
2023-05-06T22:01:12.058Z,41.13
2023-05-06T22:03:38.976Z,39.43
2023-05-06T22:06:06.584Z,42.80
2023-05-06T22:08:33.766Z,38.00
2023-05-06T22:11:00.931Z,41.00
2023-05-06T22:13:27.848Z,42.83
2023-05-06T22:15:54.703Z,40.00
2023-05-06T22:18:21.664Z,39.83
2023-05-06T22:20:50.651Z,41.30
2023-05-06T22:23:19.154Z,42.13
2023-05-06T22:25:46.681Z,39.97
2023-05-06T22:28:13.428Z,40.10
2023-05-06T22:30:40.161Z,42.07
2023-05-06T22:33:07.257Z,40.87
2023-05-06T22:35:34.073Z,39.23
2023-05-06T22:38:00.847Z,41.80
2023-05-06T22:40:30.602Z,44.40
2023-05-06T22:42:57.406Z,38.27
2023-05-06T22:45:24.103Z,42.90
2023-05-06T22:47:50.914Z,38.57
2023-05-06T22:50:17.658Z,40.23
2023-05-06T22:52:44.414Z,39.53
2023-05-06T22:55:11.701Z,44.20
2023-05-06T22:57:38.742Z,36.20
2023-05-06T23:00:07.184Z,37.10
2023-05-06T23:02:34.001Z,39.20
2023-05-06T23:05:00.909Z,37.60
2023-05-06T23:07:27.643Z,42.83
2023-05-06T23:09:54.292Z,39.87
2023-05-06T23:12:21.010Z,38.67
2023-05-06T23:14:47.762Z,38.07
2023-05-06T23:17:14.533Z,39.50
2023-05-06T23:19:41.268Z,43.27
2023-05-06T23:22:07.920Z,38.27
2023-05-06T23:24:34.716Z,42.40
2023-05-06T23:27:01.609Z,36.03
2023-05-06T23:29:28.251Z,45.17
2023-05-06T23:31:54.915Z,38.60
2023-05-06T23:34:21.693Z,35.83
2023-05-06T23:36:48.347Z,38.13
2023-05-06T23:39:15.266Z,39.10
2023-05-06T23:41:42.056Z,42.63
2023-05-06T23:44:08.732Z,44.57
2023-05-06T23:46:35.731Z,46.50
2023-05-06T23:49:02.729Z,39.23
2023-05-06T23:51:29.502Z,45.10
2023-05-06T23:53:56.366Z,43.07
2023-05-06T23:56:23.061Z,37.17
2023-05-06T23:58:49.810Z,38.00
